sensor_id;sensor_type;location;lat;lon;timestamp;P1;durP1;ratioP1;P2;durP2;ratioP2
56373;SDS011;58212;47.034;7.376;2023-12-20T00:01:02;9.50;;;7.78;;
56373;SDS011;58212;47.034;7.376;2023-12-20T00:03:29;9.55;;;8.18;;
56373;SDS011;58212;47.034;7.376;2023-12-20T00:05:55;7.40;;;6.70;;
56373;SDS011;58212;47.034;7.376;2023-12-20T00:08:23;7.22;;;6.50;;
56373;SDS011;58212;47.034;7.376;2023-12-20T00:10:50;8.95;;;7.20;;
56373;SDS011;58212;47.034;7.376;2023-12-20T00:13:17;8.23;;;7.18;;
56373;SDS011;58212;47.034;7.376;2023-12-20T00:15:43;8.38;;;6.90;;
56373;SDS011;58212;47.034;7.376;2023-12-20T00:18:10;8.63;;;7.72;;
56373;SDS011;58212;47.034;7.376;2023-12-20T00:20:37;7.80;;;6.70;;
56373;SDS011;58212;47.034;7.376;2023-12-20T00:23:04;10.32;;;8.27;;
56373;SDS011;58212;47.034;7.376;2023-12-20T00:25:32;8.70;;;7.03;;
56373;SDS011;58212;47.034;7.376;2023-12-20T00:27:58;8.23;;;7.30;;
56373;SDS011;58212;47.034;7.376;2023-12-20T00:30:25;6.72;;;5.82;;
56373;SDS011;58212;47.034;7.376;2023-12-20T00:32:52;8.63;;;7.20;;
56373;SDS011;58212;47.034;7.376;2023-12-20T00:35:19;6.47;;;5.18;;
56373;SDS011;58212;47.034;7.376;2023-12-20T00:37:45;6.00;;;5.40;;
56373;SDS011;58212;47.034;7.376;2023-12-20T00:40:12;6.60;;;5.57;;
56373;SDS011;58212;47.034;7.376;2023-12-20T00:42:40;5.95;;;4.20;;
56373;SDS011;58212;47.034;7.376;2023-12-20T00:45:07;3.15;;;2.80;;
56373;SDS011;58212;47.034;7.376;2023-12-20T00:47:34;3.22;;;2.92;;
56373;SDS011;58212;47.034;7.376;2023-12-20T00:50:01;3.67;;;3.13;;
56373;SDS011;58212;47.034;7.376;2023-12-20T00:52:28;4.72;;;4.22;;
56373;SDS011;58212;47.034;7.376;2023-12-20T00:54:55;9.18;;;7.78;;
56373;SDS011;58212;47.034;7.376;2023-12-20T00:57:22;7.90;;;6.93;;
56373;SDS011;58212;47.034;7.376;2023-12-20T00:59:50;9.45;;;7.65;;
56373;SDS011;58212;47.034;7.376;2023-12-20T01:02:16;8.48;;;7.43;;
56373;SDS011;58212;47.034;7.376;2023-12-20T01:04:44;10.45;;;8.18;;
56373;SDS011;58212;47.034;7.376;2023-12-20T01:07:11;8.50;;;7.05;;
56373;SDS011;58212;47.034;7.376;2023-12-20T01:09:37;7.35;;;6.10;;
56373;SDS011;58212;47.034;7.376;2023-12-20T01:12:04;5.13;;;4.20;;
56373;SDS011;58212;47.034;7.376;2023-12-20T01:14:31;3.58;;;2.70;;
56373;SDS011;58212;47.034;7.376;2023-12-20T01:16:59;2.33;;;2.13;;
56373;SDS011;58212;47.034;7.376;2023-12-20T01:19:26;3.05;;;2.75;;
56373;SDS011;58212;47.034;7.376;2023-12-20T01:21:54;2.40;;;2.20;;
56373;SDS011;58212;47.034;7.376;2023-12-20T01:24:21;2.35;;;2.13;;
56373;SDS011;58212;47.034;7.376;2023-12-20T01:26:48;3.78;;;2.38;;
56373;SDS011;58212;47.034;7.376;2023-12-20T01:29:15;2.72;;;2.53;;
56373;SDS011;58212;47.034;7.376;2023-12-20T01:31:41;2.97;;;2.40;;
56373;SDS011;58212;47.034;7.376;2023-12-20T01:34:09;2.20;;;2.00;;
56373;SDS011;58212;47.034;7.376;2023-12-20T01:36:36;2.53;;;2.20;;
56373;SDS011;58212;47.034;7.376;2023-12-20T01:39:03;3.60;;;2.33;;
56373;SDS011;58212;47.034;7.376;2023-12-20T01:41:30;2.58;;;2.38;;
56373;SDS011;58212;47.034;7.376;2023-12-20T01:43:57;3.92;;;2.80;;
56373;SDS011;58212;47.034;7.376;2023-12-20T01:46:23;4.30;;;2.60;;
56373;SDS011;58212;47.034;7.376;2023-12-20T01:48:51;3.38;;;2.90;;
56373;SDS011;58212;47.034;7.376;2023-12-20T01:51:19;3.42;;;3.13;;
56373;SDS011;58212;47.034;7.376;2023-12-20T01:53:47;4.30;;;3.45;;
56373;SDS011;58212;47.034;7.376;2023-12-20T01:56:14;3.70;;;3.38;;
56373;SDS011;58212;47.034;7.376;2023-12-20T01:58:43;5.13;;;4.05;;
56373;SDS011;58212;47.034;7.376;2023-12-20T02:01:11;5.70;;;4.10;;
56373;SDS011;58212;47.034;7.376;2023-12-20T02:03:38;4.43;;;3.83;;
56373;SDS011;58212;47.034;7.376;2023-12-20T02:06:05;5.90;;;3.90;;
56373;SDS011;58212;47.034;7.376;2023-12-20T02:08:33;5.32;;;4.10;;
56373;SDS011;58212;47.034;7.376;2023-12-20T02:11:00;4.95;;;4.03;;
56373;SDS011;58212;47.034;7.376;2023-12-20T02:13:27;5.57;;;3.75;;
56373;SDS011;58212;47.034;7.376;2023-12-20T02:15:54;4.57;;;3.97;;
56373;SDS011;58212;47.034;7.376;2023-12-20T02:18:21;4.10;;;3.67;;
56373;SDS011;58212;47.034;7.376;2023-12-20T02:20:48;4.57;;;3.60;;
56373;SDS011;58212;47.034;7.376;2023-12-20T02:23:17;3.92;;;3.20;;
56373;SDS011;58212;47.034;7.376;2023-12-20T02:25:43;3.83;;;3.33;;
56373;SDS011;58212;47.034;7.376;2023-12-20T02:28:10;4.13;;;3.50;;
56373;SDS011;58212;47.034;7.376;2023-12-20T02:30:37;3.67;;;3.20;;
56373;SDS011;58212;47.034;7.376;2023-12-20T02:33:04;5.55;;;3.33;;
56373;SDS011;58212;47.034;7.376;2023-12-20T02:35:37;4.95;;;3.40;;
56373;SDS011;58212;47.034;7.376;2023-12-20T02:38:04;3.95;;;3.20;;
56373;SDS011;58212;47.034;7.376;2023-12-20T02:40:32;4.10;;;3.45;;
56373;SDS011;58212;47.034;7.376;2023-12-20T02:42:59;3.60;;;3.20;;
56373;SDS011;58212;47.034;7.376;2023-12-20T02:45:26;4.78;;;3.25;;
56373;SDS011;58212;47.034;7.376;2023-12-20T02:47:53;3.88;;;3.45;;
56373;SDS011;58212;47.034;7.376;2023-12-20T02:50:19;4.10;;;3.30;;
56373;SDS011;58212;47.034;7.376;2023-12-20T02:52:46;5.35;;;3.88;;
56373;SDS011;58212;47.034;7.376;2023-12-20T02:55:13;5.60;;;3.40;;
56373;SDS011;58212;47.034;7.376;2023-12-20T02:57:41;4.55;;;3.40;;
56373;SDS011;58212;47.034;7.376;2023-12-20T03:00:08;4.05;;;3.60;;
56373;SDS011;58212;47.034;7.376;2023-12-20T03:02:36;5.55;;;3.92;;
56373;SDS011;58212;47.034;7.376;2023-12-20T03:05:03;5.13;;;3.78;;
56373;SDS011;58212;47.034;7.376;2023-12-20T03:07:29;3.72;;;3.40;;
56373;SDS011;58212;47.034;7.376;2023-12-20T03:09:56;5.63;;;3.70;;
56373;SDS011;58212;47.034;7.376;2023-12-20T03:12:23;5.80;;;4.20;;
56373;SDS011;58212;47.034;7.376;2023-12-20T03:14:51;4.38;;;3.80;;
56373;SDS011;58212;47.034;7.376;2023-12-20T03:17:18;6.22;;;3.75;;
56373;SDS011;58212;47.034;7.376;2023-12-20T03:19:45;5.13;;;3.85;;
56373;SDS011;58212;47.034;7.376;2023-12-20T03:22:12;5.53;;;3.80;;
56373;SDS011;58212;47.034;7.376;2023-12-20T03:24:39;5.13;;;4.07;;
56373;SDS011;58212;47.034;7.376;2023-12-20T03:27:06;5.35;;;4.13;;
56373;SDS011;58212;47.034;7.376;2023-12-20T03:29:33;3.67;;;3.10;;
56373;SDS011;58212;47.034;7.376;2023-12-20T03:32:01;3.47;;;3.13;;
56373;SDS011;58212;47.034;7.376;2023-12-20T03:34:28;3.92;;;3.35;;
56373;SDS011;58212;47.034;7.376;2023-12-20T03:36:55;4.47;;;3.10;;
56373;SDS011;58212;47.034;7.376;2023-12-20T03:39:22;3.38;;;2.88;;
56373;SDS011;58212;47.034;7.376;2023-12-20T03:41:48;3.92;;;3.03;;
56373;SDS011;58212;47.034;7.376;2023-12-20T03:44:15;3.70;;;3.10;;
56373;SDS011;58212;47.034;7.376;2023-12-20T03:46:42;3.05;;;2.80;;
56373;SDS011;58212;47.034;7.376;2023-12-20T03:49:12;5.70;;;4.40;;
56373;SDS011;58212;47.034;7.376;2023-12-20T03:51:38;7.55;;;5.97;;
56373;SDS011;58212;47.034;7.376;2023-12-20T03:54:05;8.95;;;7.15;;
56373;SDS011;58212;47.034;7.376;2023-12-20T03:56:32;9.32;;;7.10;;
56373;SDS011;58212;47.034;7.376;2023-12-20T03:58:59;7.55;;;6.78;;
56373;SDS011;58212;47.034;7.376;2023-12-20T04:01:25;7.95;;;5.95;;
56373;SDS011;58212;47.034;7.376;2023-12-20T04:03:52;5.75;;;4.75;;
56373;SDS011;58212;47.034;7.376;2023-12-20T04:06:20;3.95;;;3.53;;
56373;SDS011;58212;47.034;7.376;2023-12-20T04:08:47;4.60;;;3.58;;
56373;SDS011;58212;47.034;7.376;2023-12-20T04:11:13;4.50;;;3.08;;
56373;SDS011;58212;47.034;7.376;2023-12-20T04:13:40;3.72;;;3.20;;
56373;SDS011;58212;47.034;7.376;2023-12-20T04:16:07;3.50;;;2.75;;
56373;SDS011;58212;47.034;7.376;2023-12-20T04:18:34;3.67;;;2.90;;
56373;SDS011;58212;47.034;7.376;2023-12-20T04:21:01;4.53;;;2.83;;
56373;SDS011;58212;47.034;7.376;2023-12-20T04:23:29;3.35;;;2.97;;
56373;SDS011;58212;47.034;7.376;2023-12-20T04:25:56;4.30;;;3.80;;
56373;SDS011;58212;47.034;7.376;2023-12-20T04:28:23;3.95;;;2.85;;
56373;SDS011;58212;47.034;7.376;2023-12-20T04:30:50;4.07;;;3.67;;
56373;SDS011;58212;47.034;7.376;2023-12-20T04:33:17;7.25;;;5.32;;
56373;SDS011;58212;47.034;7.376;2023-12-20T04:35:43;8.88;;;7.38;;
56373;SDS011;58212;47.034;7.376;2023-12-20T04:38:11;10.13;;;8.32;;
56373;SDS011;58212;47.034;7.376;2023-12-20T04:40:39;10.18;;;8.98;;
56373;SDS011;58212;47.034;7.376;2023-12-20T04:43:06;11.93;;;9.10;;
56373;SDS011;58212;47.034;7.376;2023-12-20T04:45:33;11.80;;;9.80;;
56373;SDS011;58212;47.034;7.376;2023-12-20T04:48:00;11.52;;;9.38;;
56373;SDS011;58212;47.034;7.376;2023-12-20T04:50:27;11.73;;;9.70;;
56373;SDS011;58212;47.034;7.376;2023-12-20T04:52:54;10.60;;;9.07;;
56373;SDS011;58212;47.034;7.376;2023-12-20T04:55:21;9.15;;;7.97;;
56373;SDS011;58212;47.034;7.376;2023-12-20T04:57:49;8.90;;;7.50;;
56373;SDS011;58212;47.034;7.376;2023-12-20T05:00:16;8.88;;;7.97;;
56373;SDS011;58212;47.034;7.376;2023-12-20T05:02:43;5.80;;;5.20;;
56373;SDS011;58212;47.034;7.376;2023-12-20T05:05:10;3.42;;;3.10;;
56373;SDS011;58212;47.034;7.376;2023-12-20T05:07:36;3.30;;;2.90;;
56373;SDS011;58212;47.034;7.376;2023-12-20T05:10:03;3.60;;;2.80;;
56373;SDS011;58212;47.034;7.376;2023-12-20T05:12:31;3.08;;;2.45;;
56373;SDS011;58212;47.034;7.376;2023-12-20T05:14:59;5.47;;;3.05;;
56373;SDS011;58212;47.034;7.376;2023-12-20T05:17:25;3.30;;;3.00;;
56373;SDS011;58212;47.034;7.376;2023-12-20T05:19:52;4.60;;;3.17;;
56373;SDS011;58212;47.034;7.376;2023-12-20T05:22:19;3.38;;;2.88;;
56373;SDS011;58212;47.034;7.376;2023-12-20T05:24:46;2.95;;;2.60;;
56373;SDS011;58212;47.034;7.376;2023-12-20T05:27:13;2.72;;;2.53;;
56373;SDS011;58212;47.034;7.376;2023-12-20T05:29:40;2.50;;;2.30;;
56373;SDS011;58212;47.034;7.376;2023-12-20T05:32:08;2.75;;;2.55;;
56373;SDS011;58212;47.034;7.376;2023-12-20T05:34:35;2.50;;;2.03;;
56373;SDS011;58212;47.034;7.376;2023-12-20T05:37:01;3.83;;;2.90;;
56373;SDS011;58212;47.034;7.376;2023-12-20T05:39:28;3.83;;;2.80;;
56373;SDS011;58212;47.034;7.376;2023-12-20T05:41:56;2.78;;;2.53;;
56373;SDS011;58212;47.034;7.376;2023-12-20T05:44:23;3.03;;;2.67;;
56373;SDS011;58212;47.034;7.376;2023-12-20T05:46:49;2.53;;;2.33;;
56373;SDS011;58212;47.034;7.376;2023-12-20T05:49:17;2.90;;;2.25;;
56373;SDS011;58212;47.034;7.376;2023-12-20T05:51:44;2.78;;;2.58;;
56373;SDS011;58212;47.034;7.376;2023-12-20T05:54:11;3.22;;;2.55;;
56373;SDS011;58212;47.034;7.376;2023-12-20T05:56:38;3.17;;;2.55;;
56373;SDS011;58212;47.034;7.376;2023-12-20T05:59:05;2.70;;;2.33;;
56373;SDS011;58212;47.034;7.376;2023-12-20T06:01:31;2.63;;;2.25;;
56373;SDS011;58212;47.034;7.376;2023-12-20T06:03:58;2.42;;;2.22;;
56373;SDS011;58212;47.034;7.376;2023-12-20T06:06:26;2.33;;;2.13;;
56373;SDS011;58212;47.034;7.376;2023-12-20T06:08:53;3.22;;;2.28;;
56373;SDS011;58212;47.034;7.376;2023-12-20T06:11:20;2.70;;;2.50;;
56373;SDS011;58212;47.034;7.376;2023-12-20T06:13:46;3.08;;;2.45;;
56373;SDS011;58212;47.034;7.376;2023-12-20T06:16:14;2.92;;;2.63;;
56373;SDS011;58212;47.034;7.376;2023-12-20T06:18:41;2.60;;;2.40;;
56373;SDS011;58212;47.034;7.376;2023-12-20T06:21:07;2.38;;;2.13;;
56373;SDS011;58212;47.034;7.376;2023-12-20T06:23:39;3.22;;;2.50;;
56373;SDS011;58212;47.034;7.376;2023-12-20T06:26:06;2.90;;;2.60;;
56373;SDS011;58212;47.034;7.376;2023-12-20T06:28:32;4.22;;;2.65;;
56373;SDS011;58212;47.034;7.376;2023-12-20T06:30:59;5.18;;;3.35;;
56373;SDS011;58212;47.034;7.376;2023-12-20T06:33:26;3.20;;;2.90;;
56373;SDS011;58212;47.034;7.376;2023-12-20T06:35:54;4.72;;;3.55;;
56373;SDS011;58212;47.034;7.376;2023-12-20T06:38:21;3.92;;;3.25;;
56373;SDS011;58212;47.034;7.376;2023-12-20T06:40:49;3.63;;;3.25;;
56373;SDS011;58212;47.034;7.376;2023-12-20T06:43:16;3.63;;;3.03;;
56373;SDS011;58212;47.034;7.376;2023-12-20T06:45:42;3.65;;;3.28;;
56373;SDS011;58212;47.034;7.376;2023-12-20T06:48:09;2.95;;;2.65;;
56373;SDS011;58212;47.034;7.376;2023-12-20T06:50:38;3.20;;;2.90;;
56373;SDS011;58212;47.034;7.376;2023-12-20T06:53:05;2.50;;;2.30;;
56373;SDS011;58212;47.034;7.376;2023-12-20T06:55:33;3.10;;;2.58;;
56373;SDS011;58212;47.034;7.376;2023-12-20T06:58:02;2.90;;;2.50;;
56373;SDS011;58212;47.034;7.376;2023-12-20T07:00:29;2.88;;;2.58;;
56373;SDS011;58212;47.034;7.376;2023-12-20T07:02:56;2.53;;;2.15;;
56373;SDS011;58212;47.034;7.376;2023-12-20T07:05:23;2.03;;;1.83;;
56373;SDS011;58212;47.034;7.376;2023-12-20T07:07:51;1.92;;;1.73;;
56373;SDS011;58212;47.034;7.376;2023-12-20T07:10:18;2.35;;;2.15;;
56373;SDS011;58212;47.034;7.376;2023-12-20T07:12:45;2.20;;;2.00;;
56373;SDS011;58212;47.034;7.376;2023-12-20T07:15:15;2.03;;;1.83;;
56373;SDS011;58212;47.034;7.376;2023-12-20T07:17:42;3.20;;;2.72;;
56373;SDS011;58212;47.034;7.376;2023-12-20T07:20:09;2.20;;;2.00;;
56373;SDS011;58212;47.034;7.376;2023-12-20T07:22:36;2.20;;;2.00;;
56373;SDS011;58212;47.034;7.376;2023-12-20T07:25:04;2.78;;;2.10;;
56373;SDS011;58212;47.034;7.376;2023-12-20T07:27:31;2.92;;;2.00;;
56373;SDS011;58212;47.034;7.376;2023-12-20T07:29:58;2.30;;;2.10;;
56373;SDS011;58212;47.034;7.376;2023-12-20T07:32:26;2.50;;;1.90;;
56373;SDS011;58212;47.034;7.376;2023-12-20T07:34:53;2.50;;;2.08;;
56373;SDS011;58212;47.034;7.376;2023-12-20T07:37:20;2.20;;;2.00;;
56373;SDS011;58212;47.034;7.376;2023-12-20T07:39:47;2.72;;;2.25;;
56373;SDS011;58212;47.034;7.376;2023-12-20T07:42:13;2.67;;;2.20;;
56373;SDS011;58212;47.034;7.376;2023-12-20T07:44:40;2.67;;;2.00;;
56373;SDS011;58212;47.034;7.376;2023-12-20T07:47:07;2.95;;;2.15;;
56373;SDS011;58212;47.034;7.376;2023-12-20T07:49:35;4.68;;;2.30;;
56373;SDS011;58212;47.034;7.376;2023-12-20T07:52:02;2.97;;;2.67;;
56373;SDS011;58212;47.034;7.376;2023-12-20T07:54:29;2.53;;;2.33;;
56373;SDS011;58212;47.034;7.376;2023-12-20T07:56:56;3.65;;;2.60;;
56373;SDS011;58212;47.034;7.376;2023-12-20T07:59:23;3.95;;;2.90;;
56373;SDS011;58212;47.034;7.376;2023-12-20T08:01:50;2.92;;;2.63;;
56373;SDS011;58212;47.034;7.376;2023-12-20T08:04:17;3.03;;;2.65;;
56373;SDS011;58212;47.034;7.376;2023-12-20T08:06:45;2.90;;;2.60;;
56373;SDS011;58212;47.034;7.376;2023-12-20T08:09:11;3.15;;;2.85;;
56373;SDS011;58212;47.034;7.376;2023-12-20T08:11:38;3.50;;;2.80;;
56373;SDS011;58212;47.034;7.376;2023-12-20T08:14:05;3.20;;;2.90;;
56373;SDS011;58212;47.034;7.376;2023-12-20T08:16:32;12.48;;;3.17;;
56373;SDS011;58212;47.034;7.376;2023-12-20T08:18:58;8.80;;;3.63;;
56373;SDS011;58212;47.034;7.376;2023-12-20T08:21:25;6.30;;;3.90;;
56373;SDS011;58212;47.034;7.376;2023-12-20T08:23:54;4.95;;;4.32;;
56373;SDS011;58212;47.034;7.376;2023-12-20T08:26:20;4.38;;;3.70;;
56373;SDS011;58212;47.034;7.376;2023-12-20T08:28:49;4.47;;;3.92;;
56373;SDS011;58212;47.034;7.376;2023-12-20T08:31:15;4.60;;;2.40;;
56373;SDS011;58212;47.034;7.376;2023-12-20T08:33:43;3.13;;;2.30;;
56373;SDS011;58212;47.034;7.376;2023-12-20T08:36:10;2.30;;;2.10;;
56373;SDS011;58212;47.034;7.376;2023-12-20T08:38:37;2.33;;;2.10;;
56373;SDS011;58212;47.034;7.376;2023-12-20T08:41:06;2.75;;;2.13;;
56373;SDS011;58212;47.034;7.376;2023-12-20T08:43:34;2.53;;;2.33;;
56373;SDS011;58212;47.034;7.376;2023-12-20T08:46:01;2.53;;;2.20;;
56373;SDS011;58212;47.034;7.376;2023-12-20T08:48:28;2.05;;;1.27;;
56373;SDS011;58212;47.034;7.376;2023-12-20T08:50:55;1.70;;;1.60;;
56373;SDS011;58212;47.034;7.376;2023-12-20T08:53:21;1.70;;;1.60;;
56373;SDS011;58212;47.034;7.376;2023-12-20T08:55:48;2.38;;;1.70;;
56373;SDS011;58212;47.034;7.376;2023-12-20T08:58:16;1.95;;;1.58;;
56373;SDS011;58212;47.034;7.376;2023-12-20T09:00:43;2.13;;;1.67;;
56373;SDS011;58212;47.034;7.376;2023-12-20T09:03:10;2.55;;;1.70;;
56373;SDS011;58212;47.034;7.376;2023-12-20T09:05:36;2.88;;;2.50;;
56373;SDS011;58212;47.034;7.376;2023-12-20T09:08:03;2.95;;;2.40;;
56373;SDS011;58212;47.034;7.376;2023-12-20T09:10:30;2.60;;;2.03;;
56373;SDS011;58212;47.034;7.376;2023-12-20T09:12:57;2.53;;;2.33;;
56373;SDS011;58212;47.034;7.376;2023-12-20T09:15:26;2.35;;;2.03;;
56373;SDS011;58212;47.034;7.376;2023-12-20T09:17:54;2.60;;;2.40;;
56373;SDS011;58212;47.034;7.376;2023-12-20T09:20:20;2.80;;;2.60;;
56373;SDS011;58212;47.034;7.376;2023-12-20T09:22:48;3.22;;;2.92;;
56373;SDS011;58212;47.034;7.376;2023-12-20T09:25:15;2.60;;;2.40;;
56373;SDS011;58212;47.034;7.376;2023-12-20T09:27:43;3.10;;;2.80;;
56373;SDS011;58212;47.034;7.376;2023-12-20T09:30:09;4.00;;;2.53;;
56373;SDS011;58212;47.034;7.376;2023-12-20T09:32:38;3.45;;;3.15;;
56373;SDS011;58212;47.034;7.376;2023-12-20T09:35:05;3.30;;;2.90;;
56373;SDS011;58212;47.034;7.376;2023-12-20T09:37:34;2.50;;;2.22;;
56373;SDS011;58212;47.034;7.376;2023-12-20T09:40:01;2.80;;;2.60;;
56373;SDS011;58212;47.034;7.376;2023-12-20T09:42:29;2.90;;;2.40;;
56373;SDS011;58212;47.034;7.376;2023-12-20T09:45:04;5.25;;;3.38;;
56373;SDS011;58212;47.034;7.376;2023-12-20T09:47:35;3.70;;;2.45;;
56373;SDS011;58212;47.034;7.376;2023-12-20T09:50:04;3.42;;;2.47;;
56373;SDS011;58212;47.034;7.376;2023-12-20T09:52:31;2.47;;;2.28;;
56373;SDS011;58212;47.034;7.376;2023-12-20T09:55:00;2.13;;;2.03;;
56373;SDS011;58212;47.034;7.376;2023-12-20T09:57:30;1.88;;;1.70;;
56373;SDS011;58212;47.034;7.376;2023-12-20T09:59:57;2.30;;;1.98;;
56373;SDS011;58212;47.034;7.376;2023-12-20T10:02:25;2.67;;;1.75;;
56373;SDS011;58212;47.034;7.376;2023-12-20T10:04:53;2.17;;;1.98;;
56373;SDS011;58212;47.034;7.376;2023-12-20T10:07:22;2.15;;;1.90;;
56373;SDS011;58212;47.034;7.376;2023-12-20T10:09:48;2.03;;;1.83;;
56373;SDS011;58212;47.034;7.376;2023-12-20T10:12:20;2.70;;;1.70;;
56373;SDS011;58212;47.034;7.376;2023-12-20T10:14:47;2.10;;;1.88;;
56373;SDS011;58212;47.034;7.376;2023-12-20T10:17:13;2.25;;;1.70;;
56373;SDS011;58212;47.034;7.376;2023-12-20T10:19:40;2.33;;;1.50;;
56373;SDS011;58212;47.034;7.376;2023-12-20T10:22:09;1.73;;;1.50;;
56373;SDS011;58212;47.034;7.376;2023-12-20T10:24:38;2.35;;;1.65;;
56373;SDS011;58212;47.034;7.376;2023-12-20T10:27:07;1.52;;;1.33;;
56373;SDS011;58212;47.034;7.376;2023-12-20T10:29:36;1.40;;;1.10;;
56373;SDS011;58212;47.034;7.376;2023-12-20T10:32:23;1.38;;;1.23;;
56373;SDS011;58212;47.034;7.376;2023-12-20T10:34:51;1.80;;;1.30;;
56373;SDS011;58212;47.034;7.376;2023-12-20T10:37:18;1.45;;;1.20;;
56373;SDS011;58212;47.034;7.376;2023-12-20T10:39:49;1.38;;;1.25;;
56373;SDS011;58212;47.034;7.376;2023-12-20T10:42:17;1.40;;;0.82;;
56373;SDS011;58212;47.034;7.376;2023-12-20T10:44:46;0.85;;;0.70;;
56373;SDS011;58212;47.034;7.376;2023-12-20T10:47:13;0.95;;;0.85;;
56373;SDS011;58212;47.034;7.376;2023-12-20T10:49:40;1.35;;;1.08;;
56373;SDS011;58212;47.034;7.376;2023-12-20T10:52:08;1.30;;;1.20;;
56373;SDS011;58212;47.034;7.376;2023-12-20T10:54:35;1.17;;;0.85;;
56373;SDS011;58212;47.034;7.376;2023-12-20T10:57:04;2.50;;;1.20;;
56373;SDS011;58212;47.034;7.376;2023-12-20T10:59:32;1.00;;;0.90;;
56373;SDS011;58212;47.034;7.376;2023-12-20T11:02:01;0.80;;;0.70;;
56373;SDS011;58212;47.034;7.376;2023-12-20T11:04:31;0.88;;;0.60;;
56373;SDS011;58212;47.034;7.376;2023-12-20T11:07:07;1.30;;;0.73;;
56373;SDS011;58212;47.034;7.376;2023-12-20T11:09:44;0.85;;;0.70;;
56373;SDS011;58212;47.034;7.376;2023-12-20T11:12:18;0.70;;;0.70;;
56373;SDS011;58212;47.034;7.376;2023-12-20T11:14:52;0.73;;;0.60;;
56373;SDS011;58212;47.034;7.376;2023-12-20T11:17:21;1.45;;;1.02;;
56373;SDS011;58212;47.034;7.376;2023-12-20T11:22:37;1.30;;;1.20;;
56373;SDS011;58212;47.034;7.376;2023-12-20T11:25:07;0.95;;;0.80;;
56373;SDS011;58212;47.034;7.376;2023-12-20T11:27:36;1.33;;;1.05;;
56373;SDS011;58212;47.034;7.376;2023-12-20T11:30:07;0.90;;;0.80;;
56373;SDS011;58212;47.034;7.376;2023-12-20T11:32:38;1.38;;;0.75;;
56373;SDS011;58212;47.034;7.376;2023-12-20T11:35:17;1.20;;;0.82;;
56373;SDS011;58212;47.034;7.376;2023-12-20T11:37:45;1.00;;;0.90;;
56373;SDS011;58212;47.034;7.376;2023-12-20T11:40:14;0.98;;;0.88;;
56373;SDS011;58212;47.034;7.376;2023-12-20T11:42:44;1.52;;;1.00;;
56373;SDS011;58212;47.034;7.376;2023-12-20T11:45:13;1.05;;;0.95;;
56373;SDS011;58212;47.034;7.376;2023-12-20T11:47:42;1.13;;;1.02;;
56373;SDS011;58212;47.034;7.376;2023-12-20T11:50:11;1.77;;;1.20;;
56373;SDS011;58212;47.034;7.376;2023-12-20T11:52:38;0.80;;;0.80;;
56373;SDS011;58212;47.034;7.376;2023-12-20T11:55:05;0.85;;;0.75;;
56373;SDS011;58212;47.034;7.376;2023-12-20T11:57:33;1.23;;;0.90;;
56373;SDS011;58212;47.034;7.376;2023-12-20T12:00:02;1.65;;;0.82;;
56373;SDS011;58212;47.034;7.376;2023-12-20T12:02:37;1.38;;;0.93;;
56373;SDS011;58212;47.034;7.376;2023-12-20T12:05:04;1.10;;;1.00;;
56373;SDS011;58212;47.034;7.376;2023-12-20T12:07:32;0.95;;;0.95;;
56373;SDS011;58212;47.034;7.376;2023-12-20T12:09:59;3.92;;;1.73;;
56373;SDS011;58212;47.034;7.376;2023-12-20T12:12:26;1.15;;;1.00;;
56373;SDS011;58212;47.034;7.376;2023-12-20T12:14:55;1.92;;;1.00;;
56373;SDS011;58212;47.034;7.376;2023-12-20T12:17:24;2.20;;;0.98;;
56373;SDS011;58212;47.034;7.376;2023-12-20T12:19:51;1.23;;;1.00;;
56373;SDS011;58212;47.034;7.376;2023-12-20T12:22:29;1.38;;;1.27;;
56373;SDS011;58212;47.034;7.376;2023-12-20T12:24:58;0.90;;;0.80;;
56373;SDS011;58212;47.034;7.376;2023-12-20T12:27:26;0.85;;;0.85;;
56373;SDS011;58212;47.034;7.376;2023-12-20T12:30:00;1.00;;;0.90;;
56373;SDS011;58212;47.034;7.376;2023-12-20T12:32:30;0.90;;;0.70;;
56373;SDS011;58212;47.034;7.376;2023-12-20T12:34:57;0.60;;;0.55;;
56373;SDS011;58212;47.034;7.376;2023-12-20T12:37:24;0.93;;;0.77;;
56373;SDS011;58212;47.034;7.376;2023-12-20T12:39:53;1.08;;;0.70;;
56373;SDS011;58212;47.034;7.376;2023-12-20T12:42:19;0.98;;;0.50;;
56373;SDS011;58212;47.034;7.376;2023-12-20T12:44:47;2.08;;;0.50;;
56373;SDS011;58212;47.034;7.376;2023-12-20T12:47:13;0.55;;;0.40;;
56373;SDS011;58212;47.034;7.376;2023-12-20T12:49:41;2.60;;;0.50;;
56373;SDS011;58212;47.034;7.376;2023-12-20T12:52:08;2.90;;;0.60;;
56373;SDS011;58212;47.034;7.376;2023-12-20T12:54:35;1.33;;;0.80;;
56373;SDS011;58212;47.034;7.376;2023-12-20T12:57:02;0.68;;;0.40;;
56373;SDS011;58212;47.034;7.376;2023-12-20T12:59:29;0.70;;;0.32;;
56373;SDS011;58212;47.034;7.376;2023-12-20T13:01:56;1.77;;;0.50;;
56373;SDS011;58212;47.034;7.376;2023-12-20T13:04:23;0.35;;;0.30;;
56373;SDS011;58212;47.034;7.376;2023-12-20T13:06:51;0.73;;;0.50;;
56373;SDS011;58212;47.034;7.376;2023-12-20T13:09:18;0.82;;;0.40;;
56373;SDS011;58212;47.034;7.376;2023-12-20T13:11:45;0.88;;;0.70;;
56373;SDS011;58212;47.034;7.376;2023-12-20T13:14:12;1.58;;;0.75;;
56373;SDS011;58212;47.034;7.376;2023-12-20T13:16:40;0.88;;;0.70;;
56373;SDS011;58212;47.034;7.376;2023-12-20T13:19:07;0.68;;;0.68;;
56373;SDS011;58212;47.034;7.376;2023-12-20T13:21:35;2.90;;;0.85;;
56373;SDS011;58212;47.034;7.376;2023-12-20T13:24:03;1.13;;;0.80;;
56373;SDS011;58212;47.034;7.376;2023-12-20T13:26:30;1.02;;;0.90;;
56373;SDS011;58212;47.034;7.376;2023-12-20T13:28:58;1.30;;;0.70;;
56373;SDS011;58212;47.034;7.376;2023-12-20T13:31:25;1.33;;;1.05;;
56373;SDS011;58212;47.034;7.376;2023-12-20T13:33:51;1.80;;;1.00;;
56373;SDS011;58212;47.034;7.376;2023-12-20T13:36:18;1.67;;;0.70;;
56373;SDS011;58212;47.034;7.376;2023-12-20T13:38:45;1.50;;;0.85;;
56373;SDS011;58212;47.034;7.376;2023-12-20T13:41:13;1.30;;;1.10;;
56373;SDS011;58212;47.034;7.376;2023-12-20T13:43:40;1.30;;;1.00;;
56373;SDS011;58212;47.034;7.376;2023-12-20T13:46:08;1.08;;;0.88;;
56373;SDS011;58212;47.034;7.376;2023-12-20T13:48:34;1.10;;;0.90;;
56373;SDS011;58212;47.034;7.376;2023-12-20T13:51:01;2.95;;;2.22;;
56373;SDS011;58212;47.034;7.376;2023-12-20T13:53:28;2.08;;;1.13;;
56373;SDS011;58212;47.034;7.376;2023-12-20T13:55:55;2.40;;;1.10;;
56373;SDS011;58212;47.034;7.376;2023-12-20T13:58:24;1.48;;;0.90;;
56373;SDS011;58212;47.034;7.376;2023-12-20T14:00:51;1.15;;;1.05;;
56373;SDS011;58212;47.034;7.376;2023-12-20T14:03:17;1.48;;;1.05;;
56373;SDS011;58212;47.034;7.376;2023-12-20T14:05:45;1.20;;;1.00;;
56373;SDS011;58212;47.034;7.376;2023-12-20T14:08:11;2.17;;;1.08;;
56373;SDS011;58212;47.034;7.376;2023-12-20T14:10:38;1.67;;;1.10;;
56373;SDS011;58212;47.034;7.376;2023-12-20T14:13:05;1.73;;;1.10;;
56373;SDS011;58212;47.034;7.376;2023-12-20T14:15:33;2.28;;;1.55;;
56373;SDS011;58212;47.034;7.376;2023-12-20T14:18:02;1.00;;;0.90;;
56373;SDS011;58212;47.034;7.376;2023-12-20T14:20:31;1.13;;;1.00;;
56373;SDS011;58212;47.034;7.376;2023-12-20T14:22:59;1.55;;;1.00;;
56373;SDS011;58212;47.034;7.376;2023-12-20T14:25:26;5.03;;;1.08;;
56373;SDS011;58212;47.034;7.376;2023-12-20T14:27:53;1.88;;;1.20;;
56373;SDS011;58212;47.034;7.376;2023-12-20T14:30:20;1.25;;;1.13;;
56373;SDS011;58212;47.034;7.376;2023-12-20T14:32:48;2.70;;;0.90;;
56373;SDS011;58212;47.034;7.376;2023-12-20T14:35:14;1.75;;;1.00;;
56373;SDS011;58212;47.034;7.376;2023-12-20T14:37:41;3.17;;;0.90;;
56373;SDS011;58212;47.034;7.376;2023-12-20T14:40:09;1.83;;;0.93;;
56373;SDS011;58212;47.034;7.376;2023-12-20T14:42:40;1.33;;;0.93;;
56373;SDS011;58212;47.034;7.376;2023-12-20T14:45:07;2.50;;;1.15;;
56373;SDS011;58212;47.034;7.376;2023-12-20T14:47:34;2.03;;;0.98;;
56373;SDS011;58212;47.034;7.376;2023-12-20T14:50:03;0.90;;;0.80;;
56373;SDS011;58212;47.034;7.376;2023-12-20T14:52:31;2.30;;;1.20;;